createdAt,value
2022-12-10T00:01:29.404Z,54.67
2022-12-10T00:03:30.850Z,55.33
2022-12-10T00:05:35.174Z,55.50
2022-12-10T00:07:36.652Z,51.53
2022-12-10T00:09:39.358Z,59.70
2022-12-10T00:11:41.171Z,52.80
2022-12-10T00:13:44.487Z,50.80
2022-12-10T00:15:45.915Z,51.95
2022-12-10T00:17:47.383Z,55.75
2022-12-10T00:19:48.810Z,52.78
2022-12-10T00:21:50.329Z,56.13
2022-12-10T00:23:52.330Z,54.80
2022-12-10T00:25:53.784Z,56.83
2022-12-10T00:27:55.288Z,56.72
2022-12-10T00:29:56.741Z,55.38
2022-12-10T00:31:58.202Z,52.03
2022-12-10T00:34:02.907Z,55.05
2022-12-10T00:36:14.034Z,54.40
2022-12-10T00:38:15.553Z,51.08
2022-12-10T00:40:17.118Z,62.00
2022-12-10T00:42:18.590Z,53.80
2022-12-10T00:44:20.041Z,54.20
2022-12-10T00:46:21.565Z,54.80
2022-12-10T00:48:23.166Z,57.00
2022-12-10T00:50:24.621Z,50.95
2022-12-10T00:52:26.126Z,51.30
2022-12-10T00:54:27.589Z,52.90
2022-12-10T00:56:33.256Z,51.45
2022-12-10T00:58:36.306Z,53.50
2022-12-10T01:00:37.805Z,51.22
2022-12-10T01:02:39.280Z,54.80
2022-12-10T01:04:40.728Z,52.80
2022-12-10T01:06:54.195Z,56.05
2022-12-10T01:08:58.489Z,53.80
2022-12-10T01:10:59.948Z,56.65
2022-12-10T01:13:07.560Z,49.78
2022-12-10T01:15:09.631Z,57.30
2022-12-10T01:17:11.130Z,58.40
2022-12-10T01:19:13.035Z,54.33
2022-12-10T01:21:20.472Z,53.42
2022-12-10T01:23:21.910Z,51.58
2022-12-10T01:25:23.420Z,56.95
2022-12-10T01:27:24.887Z,54.08
2022-12-10T01:29:27.609Z,48.80
2022-12-10T01:31:35.377Z,52.28
2022-12-10T01:33:37.568Z,54.35
2022-12-10T01:35:39.109Z,52.50
2022-12-10T01:37:40.585Z,58.75
2022-12-10T01:39:42.043Z,53.75
2022-12-10T01:41:50.090Z,49.22
2022-12-10T01:44:09.590Z,51.92
2022-12-10T01:46:11.042Z,46.17
2022-12-10T01:48:12.740Z,53.20
2022-12-10T01:50:14.310Z,48.28
2022-12-10T01:52:15.875Z,52.58
2022-12-10T01:54:26.711Z,48.50
2022-12-10T01:56:28.943Z,46.38
2022-12-10T01:58:31.026Z,48.00
2022-12-10T02:00:38.675Z,48.67
2022-12-10T02:02:53.369Z,49.83
2022-12-10T02:05:14.131Z,50.00
2022-12-10T02:07:27.615Z,49.25
2022-12-10T02:09:35.323Z,48.00
2022-12-10T02:11:56.474Z,51.45
2022-12-10T02:14:06.454Z,44.92
2022-12-10T02:16:41.141Z,44.35
2022-12-10T02:19:03.823Z,42.67
2022-12-10T02:21:13.239Z,49.78
2022-12-10T02:23:22.754Z,48.50
2022-12-10T02:25:31.359Z,47.75
2022-12-10T02:27:55.562Z,43.28
2022-12-10T02:30:00.468Z,52.90
2022-12-10T02:32:21.406Z,43.85
2022-12-10T02:34:26.082Z,45.38
2022-12-10T02:36:32.885Z,43.38
2022-12-10T02:38:38.155Z,44.70
2022-12-10T02:40:44.302Z,46.72
2022-12-10T02:42:49.552Z,42.33
2022-12-10T02:44:53.120Z,45.20
2022-12-10T02:46:57.684Z,39.70
2022-12-10T02:49:01.909Z,37.17
2022-12-10T02:51:03.575Z,39.85
2022-12-10T02:53:05.112Z,44.50
2022-12-10T02:55:06.818Z,38.97
2022-12-10T02:57:21.230Z,39.55
2022-12-10T02:59:34.089Z,34.35
2022-12-10T03:01:58.804Z,40.50
2022-12-10T03:04:23.895Z,38.83
2022-12-10T03:06:43.177Z,38.28
2022-12-10T03:09:02.397Z,40.88
2022-12-10T03:11:27.051Z,43.45
2022-12-10T03:13:33.492Z,40.17
2022-12-10T03:15:38.515Z,38.88
2022-12-10T03:17:42.663Z,41.50
2022-12-10T03:19:48.818Z,39.75
2022-12-10T03:21:52.450Z,40.70
2022-12-10T03:23:53.978Z,38.70
2022-12-10T03:25:55.672Z,37.55
2022-12-10T03:27:59.903Z,40.13
2022-12-10T03:30:01.766Z,38.25
2022-12-10T03:32:04.004Z,39.58
2022-12-10T03:34:07.091Z,36.95
2022-12-10T03:36:09.398Z,41.63
2022-12-10T03:38:11.194Z,40.00
2022-12-10T03:40:13.626Z,42.83
2022-12-10T03:42:15.299Z,41.40
2022-12-10T03:44:29.588Z,35.75
2022-12-10T03:46:32.642Z,41.67
2022-12-10T03:48:34.065Z,40.78
2022-12-10T03:50:35.555Z,39.40
2022-12-10T03:52:37.220Z,41.55
2022-12-10T03:54:38.702Z,38.80
2022-12-10T03:56:40.156Z,41.67
2022-12-10T03:58:41.599Z,40.67
2022-12-10T04:00:43.196Z,35.03
2022-12-10T04:02:44.755Z,38.33
2022-12-10T04:04:46.374Z,44.42
2022-12-10T04:06:47.989Z,42.20
2022-12-10T04:08:51.901Z,41.35
2022-12-10T04:11:10.172Z,40.53
2022-12-10T04:13:29.994Z,43.25
2022-12-10T04:15:49.792Z,40.38
2022-12-10T04:17:51.237Z,36.10
2022-12-10T04:19:52.804Z,41.28
2022-12-10T04:22:12.612Z,41.97
2022-12-10T04:24:33.805Z,37.67
2022-12-10T04:26:53.133Z,40.67
2022-12-10T04:28:54.575Z,39.53
2022-12-10T04:30:56.108Z,38.95
2022-12-10T04:32:57.581Z,38.80
2022-12-10T04:34:59.502Z,41.75
2022-12-10T04:37:02.002Z,37.53
2022-12-10T04:39:04.035Z,39.35
2022-12-10T04:41:16.250Z,36.60
2022-12-10T04:43:17.696Z,37.58
2022-12-10T04:45:19.214Z,33.28
2022-12-10T04:47:20.968Z,34.42
2022-12-10T04:49:22.665Z,34.15
2022-12-10T04:51:24.143Z,35.00
2022-12-10T04:53:25.612Z,39.17
2022-12-10T04:55:27.094Z,38.28
2022-12-10T04:57:28.532Z,35.15
2022-12-10T04:59:30.019Z,37.88
2022-12-10T05:01:31.904Z,37.22
2022-12-10T05:03:33.499Z,35.05
2022-12-10T05:05:35.804Z,33.92
2022-12-10T05:07:37.278Z,35.97
2022-12-10T05:09:39.015Z,37.03
2022-12-10T05:11:40.655Z,35.13
2022-12-10T05:13:42.669Z,35.28
2022-12-10T05:15:44.151Z,33.58
2022-12-10T05:17:45.680Z,37.08
2022-12-10T05:19:47.128Z,33.30
2022-12-10T05:22:07.298Z,32.95
2022-12-10T05:24:08.843Z,32.65
2022-12-10T05:26:11.826Z,35.17
2022-12-10T05:28:13.250Z,31.98
2022-12-10T05:30:14.778Z,32.95
2022-12-10T05:32:16.236Z,34.88
2022-12-10T05:34:17.673Z,32.22
2022-12-10T05:36:24.137Z,36.90
2022-12-10T05:38:26.591Z,35.53
2022-12-10T05:40:28.052Z,31.95
2022-12-10T05:42:29.489Z,36.30
2022-12-10T05:44:30.957Z,36.22
2022-12-10T05:46:34.735Z,31.90
2022-12-10T05:48:37.073Z,40.90
2022-12-10T05:50:38.955Z,35.33
2022-12-10T05:52:40.395Z,38.05
2022-12-10T05:54:41.961Z,32.85
2022-12-10T05:56:43.421Z,36.70
2022-12-10T05:58:47.069Z,35.40
2022-12-10T06:00:48.511Z,36.13
2022-12-10T06:02:53.172Z,34.08
2022-12-10T06:04:54.716Z,37.03
2022-12-10T06:06:56.187Z,34.65
2022-12-10T06:08:58.425Z,37.17
2022-12-10T06:11:11.670Z,36.40
2022-12-10T06:13:13.104Z,37.55
2022-12-10T06:15:14.543Z,37.38
2022-12-10T06:17:16.017Z,34.35
2022-12-10T06:19:17.461Z,38.53
2022-12-10T06:21:19.985Z,37.08
2022-12-10T06:23:21.424Z,36.10
2022-12-10T06:25:22.930Z,36.33
2022-12-10T06:27:24.379Z,38.22
2022-12-10T06:29:25.847Z,37.78
2022-12-10T06:31:27.452Z,33.33
2022-12-10T06:33:28.994Z,36.63
2022-12-10T06:35:30.514Z,36.08
2022-12-10T06:37:31.960Z,35.38
2022-12-10T06:39:33.416Z,32.15
2022-12-10T06:41:34.892Z,35.58
2022-12-10T06:43:37.094Z,35.08
2022-12-10T06:45:42.917Z,36.72
2022-12-10T06:47:44.396Z,33.10
2022-12-10T06:49:45.843Z,36.17
2022-12-10T06:51:48.518Z,35.90
2022-12-10T06:53:49.965Z,32.15
2022-12-10T06:55:51.489Z,37.08
2022-12-10T06:57:53.986Z,33.60
2022-12-10T06:59:55.431Z,32.25
2022-12-10T07:01:57.054Z,36.15
2022-12-10T07:03:58.816Z,32.15
2022-12-10T07:06:02.020Z,33.20
2022-12-10T07:08:03.616Z,34.45
2022-12-10T07:10:06.986Z,33.10
2022-12-10T07:12:08.581Z,37.35
2022-12-10T07:14:16.327Z,39.47
2022-12-10T07:16:23.486Z,34.47
2022-12-10T07:18:25.236Z,35.00
2022-12-10T07:20:26.691Z,35.50
2022-12-10T07:22:28.149Z,35.42
2022-12-10T07:24:29.622Z,37.70
2022-12-10T07:26:33.188Z,35.75
2022-12-10T07:28:38.401Z,34.60
2022-12-10T07:30:43.200Z,33.75
2022-12-10T07:32:44.647Z,36.63
2022-12-10T07:34:46.126Z,38.00
2022-12-10T07:36:47.577Z,32.00
2022-12-10T07:38:49.552Z,37.45
2022-12-10T07:40:52.200Z,36.10
2022-12-10T07:42:53.684Z,34.67
2022-12-10T07:44:55.241Z,34.97
2022-12-10T07:46:57.110Z,35.03
2022-12-10T07:49:01.409Z,36.03
2022-12-10T07:51:03.424Z,31.77
2022-12-10T07:53:04.879Z,33.60
2022-12-10T07:55:06.559Z,33.05
2022-12-10T07:57:08.086Z,34.85
2022-12-10T07:59:09.832Z,33.30
2022-12-10T08:01:20.143Z,34.58
2022-12-10T08:03:21.708Z,38.22
2022-12-10T08:05:23.202Z,33.30
2022-12-10T08:07:24.675Z,32.00
2022-12-10T08:09:26.119Z,31.48
2022-12-10T08:11:28.475Z,36.55
2022-12-10T08:13:30.261Z,31.02
2022-12-10T08:15:32.179Z,33.38
2022-12-10T08:17:36.158Z,36.03
2022-12-10T08:19:37.618Z,32.78
2022-12-10T08:21:39.110Z,32.60
2022-12-10T08:23:41.528Z,30.05
2022-12-10T08:25:42.999Z,33.33
2022-12-10T08:27:44.515Z,37.88
2022-12-10T08:29:45.951Z,31.38
2022-12-10T08:31:47.536Z,32.22
2022-12-10T08:33:49.078Z,33.80
2022-12-10T08:35:50.546Z,32.65
2022-12-10T08:37:52.070Z,33.22
2022-12-10T08:39:53.527Z,33.70
2022-12-10T08:41:54.973Z,34.10
2022-12-10T08:43:56.456Z,34.33
2022-12-10T08:45:59.458Z,39.65
2022-12-10T08:48:02.916Z,35.75
2022-12-10T08:50:04.914Z,30.90
2022-12-10T08:52:06.452Z,35.08
2022-12-10T08:54:07.896Z,38.70
2022-12-10T08:56:09.424Z,36.42
2022-12-10T08:58:11.350Z,35.55
2022-12-10T09:00:14.682Z,37.47
2022-12-10T09:02:16.236Z,36.15
2022-12-10T09:04:17.705Z,36.10
2022-12-10T09:06:21.484Z,34.88
2022-12-10T09:08:22.972Z,37.63
2022-12-10T09:10:24.499Z,35.17
2022-12-10T09:12:25.992Z,35.00
2022-12-10T09:14:28.279Z,37.45
2022-12-10T09:16:37.514Z,33.72
2022-12-10T09:18:39.425Z,36.10
2022-12-10T09:20:40.874Z,37.70
2022-12-10T09:22:42.318Z,37.08
2022-12-10T09:24:43.794Z,35.00
2022-12-10T09:26:45.267Z,36.42
2022-12-10T09:28:48.106Z,36.22
2022-12-10T09:31:00.214Z,35.08
2022-12-10T09:33:02.222Z,36.65
2022-12-10T09:35:04.869Z,31.25
2022-12-10T09:37:06.350Z,32.03
2022-12-10T09:39:07.782Z,31.25
2022-12-10T09:41:12.190Z,29.35
2022-12-10T09:43:22.801Z,30.80
2022-12-10T09:45:53.499Z,34.60
2022-12-10T09:48:13.359Z,34.60
2022-12-10T09:50:22.194Z,33.92
2022-12-10T09:54:33.681Z,32.47
2022-12-10T09:56:40.834Z,34.38
2022-12-10T09:58:42.386Z,35.25
2022-12-10T10:00:47.788Z,34.53
2022-12-10T10:02:51.891Z,34.40
2022-12-10T10:05:10.797Z,37.13
2022-12-10T10:07:21.524Z,37.75
2022-12-10T10:09:23.003Z,34.55
2022-12-10T10:11:29.535Z,36.85
2022-12-10T10:13:41.276Z,34.35
2022-12-10T10:15:45.929Z,28.38
2022-12-10T10:17:50.498Z,30.83
2022-12-10T10:19:51.929Z,28.73
2022-12-10T10:21:53.430Z,27.85
2022-12-10T10:23:55.981Z,29.00
2022-12-10T10:25:57.510Z,27.05
2022-12-10T10:27:59.151Z,27.95
2022-12-10T10:30:04.678Z,26.08
2022-12-10T10:32:24.204Z,29.98
2022-12-10T10:34:25.634Z,31.02
2022-12-10T10:36:33.822Z,30.45
2022-12-10T10:38:35.892Z,30.25
2022-12-10T10:40:37.311Z,27.90
2022-12-10T10:42:42.244Z,32.65
2022-12-10T10:44:43.979Z,26.15
2022-12-10T10:46:48.469Z,23.23
2022-12-10T10:48:50.335Z,25.17
2022-12-10T10:51:11.578Z,25.98
2022-12-10T10:53:31.507Z,28.15
2022-12-10T10:55:36.695Z,27.83
2022-12-10T10:57:38.645Z,25.05
2022-12-10T10:59:40.437Z,25.08
2022-12-10T11:01:54.101Z,26.65
2022-12-10T11:03:59.185Z,22.92
2022-12-10T11:06:01.203Z,29.75
2022-12-10T11:08:14.051Z,26.17
2022-12-10T11:10:25.808Z,22.92
2022-12-10T11:12:36.647Z,23.88
2022-12-10T11:14:46.846Z,22.52
2022-12-10T11:16:48.378Z,26.13
2022-12-10T11:19:05.158Z,25.10
2022-12-10T11:21:12.629Z,32.42
2022-12-10T11:23:14.554Z,28.83
2022-12-10T11:25:16.118Z,30.70
2022-12-10T11:27:40.217Z,25.92
2022-12-10T11:30:05.710Z,24.70
2022-12-10T11:32:22.306Z,27.88
2022-12-10T11:34:49.934Z,30.75
2022-12-10T11:37:12.503Z,32.17
2022-12-10T11:39:31.531Z,30.85
2022-12-10T11:42:21.477Z,29.08
2022-12-10T11:44:31.009Z,20.58
2022-12-10T11:46:51.081Z,27.17
2022-12-10T11:49:14.363Z,27.55
2022-12-10T11:51:35.543Z,25.40
2022-12-10T11:54:18.474Z,25.40
2022-12-10T11:56:44.812Z,23.65
2022-12-10T11:59:00.304Z,22.88
2022-12-10T12:01:29.922Z,29.50
2022-12-10T12:03:38.458Z,24.90
2022-12-10T12:05:42.615Z,25.40
2022-12-10T12:08:00.147Z,30.75
2022-12-10T12:10:31.980Z,30.00
2022-12-10T12:12:45.830Z,31.45
2022-12-10T12:14:56.534Z,32.80
2022-12-10T12:17:16.177Z,26.67
2022-12-10T12:19:26.411Z,33.80
2022-12-10T12:21:28.249Z,29.67
2022-12-10T12:24:04.846Z,30.88
2022-12-10T12:26:28.455Z,30.50
2022-12-10T12:28:37.944Z,32.40
2022-12-10T12:30:42.658Z,28.77
2022-12-10T12:33:02.732Z,34.22
2022-12-10T12:35:28.247Z,31.08
2022-12-10T12:37:58.899Z,28.15
2022-12-10T12:40:16.237Z,31.20
2022-12-10T12:42:34.691Z,35.35
2022-12-10T12:45:03.817Z,32.88
2022-12-10T12:47:37.338Z,42.42
2022-12-10T12:49:42.438Z,31.77
2022-12-10T12:52:21.941Z,27.08
2022-12-10T12:54:23.708Z,31.65
2022-12-10T12:57:05.241Z,32.58
2022-12-10T12:59:37.587Z,31.02
2022-12-10T13:01:45.063Z,30.67
2022-12-10T13:03:49.324Z,35.30
2022-12-10T13:05:51.339Z,30.00
2022-12-10T13:08:20.999Z,34.45
2022-12-10T13:10:26.282Z,31.95
2022-12-10T13:12:33.788Z,34.72
2022-12-10T13:15:02.667Z,33.63
2022-12-10T13:17:25.951Z,35.50
2022-12-10T13:19:30.158Z,33.58
2022-12-10T13:21:32.878Z,30.50
2022-12-10T13:23:52.104Z,31.80
2022-12-10T13:25:55.950Z,32.65
2022-12-10T13:28:16.612Z,34.25
2022-12-10T13:30:38.308Z,34.13
2022-12-10T13:32:39.714Z,34.35
2022-12-10T13:34:41.284Z,29.38
2022-12-10T13:36:49.662Z,27.35
2022-12-10T13:39:07.813Z,24.90
2022-12-10T13:41:27.968Z,33.78
2022-12-10T13:43:53.919Z,31.63
2022-12-10T13:46:41.530Z,30.33
2022-12-10T13:48:42.999Z,33.15
2022-12-10T13:50:59.628Z,30.55
2022-12-10T13:53:16.312Z,32.88
2022-12-10T13:55:24.081Z,32.15
2022-12-10T13:57:47.129Z,31.83
2022-12-10T13:59:49.400Z,35.20
2022-12-10T14:02:27.938Z,33.20
2022-12-10T14:06:51.883Z,31.55
2022-12-10T14:09:18.614Z,33.40
2022-12-10T14:11:24.518Z,31.92
2022-12-10T14:13:37.478Z,37.28
2022-12-10T14:15:39.210Z,33.28
2022-12-10T14:17:43.786Z,32.40
2022-12-10T14:19:47.978Z,32.97
2022-12-10T14:21:49.620Z,34.35
2022-12-10T14:23:56.287Z,37.17
2022-12-10T14:25:58.266Z,32.25
2022-12-10T14:27:59.883Z,33.50
2022-12-10T14:30:23.070Z,33.78
2022-12-10T14:32:33.171Z,34.22
2022-12-10T14:34:34.641Z,38.75
2022-12-10T14:36:44.640Z,34.40
2022-12-10T14:38:48.609Z,36.13
2022-12-10T14:40:50.454Z,33.00
2022-12-10T14:43:03.420Z,33.85
2022-12-10T14:45:06.579Z,32.55
2022-12-10T14:47:16.724Z,30.83
2022-12-10T14:49:23.101Z,33.88
2022-12-10T14:51:27.433Z,32.85
2022-12-10T14:53:29.534Z,34.35
2022-12-10T14:55:31.095Z,38.58
2022-12-10T14:57:39.125Z,32.60
2022-12-10T15:00:03.975Z,32.45
2022-12-10T15:02:21.362Z,32.13
2022-12-10T15:04:27.027Z,33.38
2022-12-10T15:06:29.118Z,33.17
2022-12-10T15:08:30.764Z,34.35
2022-12-10T15:10:39.510Z,33.28
2022-12-10T15:14:48.673Z,29.13
2022-12-10T15:16:50.527Z,31.85
2022-12-10T15:18:52.120Z,32.33
2022-12-10T15:21:03.559Z,36.63
2022-12-10T15:23:26.310Z,34.13
2022-12-10T15:25:29.971Z,31.27
2022-12-10T15:27:31.467Z,38.17
2022-12-10T15:29:35.577Z,33.88
2022-12-10T15:31:37.179Z,33.10
2022-12-10T15:33:42.144Z,31.45
2022-12-10T15:35:43.609Z,33.67
2022-12-10T15:37:51.722Z,35.15
2022-12-10T15:39:59.122Z,31.88
2022-12-10T15:42:05.204Z,35.70
2022-12-10T15:44:17.514Z,34.92
2022-12-10T15:46:19.620Z,33.05
2022-12-10T15:48:21.683Z,31.08
2022-12-10T15:50:23.202Z,30.80
2022-12-10T15:52:30.463Z,34.17
2022-12-10T15:54:37.427Z,31.25
2022-12-10T15:56:38.941Z,30.38
2022-12-10T15:58:41.933Z,31.55
2022-12-10T16:00:47.789Z,31.55
2022-12-10T16:03:05.224Z,30.52
2022-12-10T16:05:22.073Z,34.72
2022-12-10T16:07:23.747Z,29.98
2022-12-10T16:09:25.242Z,30.90
2022-12-10T16:11:27.011Z,30.40
2022-12-10T16:13:32.904Z,32.40
2022-12-10T16:15:42.264Z,30.27
2022-12-10T16:17:43.861Z,29.38
2022-12-10T16:19:45.672Z,28.35
2022-12-10T16:21:49.386Z,32.05
2022-12-10T16:23:50.912Z,30.85
2022-12-10T16:25:52.562Z,30.35
2022-12-10T16:27:54.124Z,31.20
2022-12-10T16:29:55.573Z,32.15
2022-12-10T16:31:57.085Z,31.08
2022-12-10T16:33:58.683Z,30.30
2022-12-10T16:36:03.014Z,33.40
2022-12-10T16:38:10.225Z,33.03
2022-12-10T16:40:14.570Z,31.93
2022-12-10T16:42:16.311Z,35.30
2022-12-10T16:44:17.759Z,32.45
2022-12-10T16:46:19.356Z,32.58
2022-12-10T16:48:21.546Z,31.52
2022-12-10T16:50:23.405Z,30.30
2022-12-10T16:52:24.920Z,31.33
2022-12-10T16:54:27.123Z,32.55
2022-12-10T16:56:29.178Z,28.10
2022-12-10T16:58:30.636Z,30.58
2022-12-10T17:00:32.101Z,32.33
2022-12-10T17:02:33.707Z,27.83
2022-12-10T17:04:35.306Z,32.67
2022-12-10T17:06:36.807Z,28.48
2022-12-10T17:08:38.294Z,30.30
2022-12-10T17:10:58.083Z,30.75
2022-12-10T17:12:59.580Z,32.20
2022-12-10T17:15:02.027Z,32.00
2022-12-10T17:17:04.604Z,30.30
2022-12-10T17:19:06.061Z,32.45
2022-12-10T17:21:07.590Z,29.48
2022-12-10T17:23:09.034Z,30.00
2022-12-10T17:25:10.610Z,28.25
2022-12-10T17:27:16.280Z,31.45
2022-12-10T17:29:26.703Z,29.17
2022-12-10T17:31:28.207Z,29.33
2022-12-10T17:33:29.687Z,28.42
2022-12-10T17:35:31.220Z,31.92
2022-12-10T17:37:34.014Z,31.83
2022-12-10T17:39:35.453Z,27.77
2022-12-10T17:41:38.659Z,30.40
2022-12-10T17:43:40.109Z,29.65
2022-12-10T17:45:42.628Z,27.08
2022-12-10T17:47:45.160Z,25.48
2022-12-10T17:49:46.605Z,32.65
2022-12-10T17:51:48.129Z,29.88
2022-12-10T17:53:49.684Z,33.63
2022-12-10T17:55:56.423Z,30.08
2022-12-10T17:57:59.293Z,29.83
2022-12-10T18:00:00.865Z,29.58
2022-12-10T18:02:02.628Z,30.67
2022-12-10T18:04:04.272Z,30.00
2022-12-10T18:06:13.909Z,33.92
2022-12-10T18:08:18.917Z,28.00
2022-12-10T18:10:27.047Z,30.10
2022-12-10T18:12:28.630Z,33.03
2022-12-10T18:14:30.114Z,31.55
2022-12-10T18:16:34.345Z,32.30
2022-12-10T18:18:35.979Z,30.10
2022-12-10T18:20:40.091Z,32.88
2022-12-10T18:22:41.634Z,30.58
2022-12-10T18:24:43.193Z,31.58
2022-12-10T18:26:45.045Z,31.98
2022-12-10T18:28:55.694Z,29.00
2022-12-10T18:31:02.639Z,32.35
2022-12-10T18:33:04.351Z,33.55
2022-12-10T18:35:06.151Z,31.25
2022-12-10T18:37:10.560Z,32.78
2022-12-10T18:39:17.456Z,31.77
2022-12-10T18:41:19.505Z,52.17
2022-12-10T18:43:20.996Z,38.55
2022-12-10T18:45:22.476Z,30.05
2022-12-10T18:47:23.949Z,31.33
2022-12-10T18:49:25.956Z,35.67
2022-12-10T18:51:27.504Z,35.30
2022-12-10T18:53:29.010Z,35.95
2022-12-10T18:55:30.562Z,32.47
2022-12-10T18:57:35.419Z,34.80
2022-12-10T18:59:40.914Z,34.45
2022-12-10T19:01:42.602Z,34.38
2022-12-10T19:03:48.421Z,33.67
2022-12-10T19:05:50.740Z,32.75
2022-12-10T19:07:52.217Z,32.63
2022-12-10T19:09:54.134Z,31.73
2022-12-10T19:11:55.629Z,31.67
2022-12-10T19:13:57.264Z,31.80
2022-12-10T19:15:59.390Z,31.70
2022-12-10T19:18:03.628Z,30.08
2022-12-10T19:20:07.057Z,30.10
2022-12-10T19:22:08.519Z,31.15
2022-12-10T19:24:11.858Z,30.60
2022-12-10T19:26:35.575Z,31.67
2022-12-10T19:28:37.038Z,32.97
2022-12-10T19:30:38.739Z,30.25
2022-12-10T19:32:40.202Z,27.70
2022-12-10T19:34:42.026Z,26.75
2022-12-10T19:36:43.984Z,30.17
2022-12-10T19:38:45.897Z,31.00
2022-12-10T19:40:47.486Z,31.88
2022-12-10T19:42:49.479Z,32.97
2022-12-10T19:44:51.004Z,32.90
2022-12-10T19:46:52.540Z,28.58
2022-12-10T19:48:54.139Z,30.25
2022-12-10T19:50:55.604Z,28.05
2022-12-10T19:52:57.382Z,31.40
2022-12-10T19:54:58.845Z,27.58
2022-12-10T19:57:00.485Z,28.92
2022-12-10T19:59:14.530Z,29.08
2022-12-10T20:01:17.141Z,28.65
2022-12-10T20:03:18.947Z,30.88
2022-12-10T20:05:21.257Z,26.92
2022-12-10T20:07:22.898Z,27.23
2022-12-10T20:09:27.402Z,28.58
2022-12-10T20:11:29.723Z,29.30
2022-12-10T20:13:31.171Z,30.75
2022-12-10T20:15:33.818Z,27.52
2022-12-10T20:17:35.383Z,27.27
2022-12-10T20:19:36.994Z,25.85
2022-12-10T20:21:38.499Z,28.15
2022-12-10T20:23:40.655Z,31.40
2022-12-10T20:25:45.213Z,26.75
2022-12-10T20:27:47.221Z,24.85
2022-12-10T20:29:48.756Z,25.52
2022-12-10T20:31:52.622Z,28.40
2022-12-10T20:33:54.139Z,29.35
2022-12-10T20:35:57.215Z,26.98
2022-12-10T20:37:58.683Z,27.63
2022-12-10T20:40:29.624Z,27.33
2022-12-10T20:42:21.638Z,25.27
2022-12-10T20:44:24.410Z,26.88
2022-12-10T20:46:30.571Z,26.23
2022-12-10T20:48:32.036Z,23.83
2022-12-10T20:50:33.509Z,30.52
2022-12-10T20:52:36.578Z,24.45
2022-12-10T20:54:38.091Z,28.50
2022-12-10T20:56:39.943Z,26.55
2022-12-10T20:58:42.130Z,28.27
2022-12-10T21:00:43.630Z,30.30
2022-12-10T21:02:45.229Z,26.67
2022-12-10T21:04:46.713Z,27.00
2022-12-10T21:06:48.296Z,24.02
2022-12-10T21:08:50.158Z,26.08
2022-12-10T21:10:51.680Z,26.58
2022-12-10T21:12:53.164Z,24.17
2022-12-10T21:15:00.806Z,24.73
2022-12-10T21:17:07.287Z,23.40
2022-12-10T21:19:11.513Z,23.92
2022-12-10T21:21:14.428Z,22.85
2022-12-10T21:23:19.163Z,29.88
2022-12-10T21:25:20.620Z,25.63
2022-12-10T21:27:22.083Z,25.15
2022-12-10T21:29:25.159Z,28.50
2022-12-10T21:31:26.778Z,24.48
2022-12-10T21:33:28.446Z,23.23
2022-12-10T21:35:31.844Z,23.85
2022-12-10T21:37:33.287Z,25.30
2022-12-10T21:39:34.724Z,24.73
2022-12-10T21:41:54.576Z,27.13
2022-12-10T21:43:56.378Z,23.02
2022-12-10T21:45:57.854Z,26.20
2022-12-10T21:48:01.223Z,23.60
2022-12-10T21:50:02.996Z,22.98
2022-12-10T21:52:04.743Z,24.05
2022-12-10T21:54:06.858Z,24.50
2022-12-10T21:56:09.924Z,23.90
2022-12-10T21:58:12.436Z,24.13
2022-12-10T22:00:15.350Z,23.33
2022-12-10T22:02:16.873Z,25.65
2022-12-10T22:04:18.306Z,22.27
2022-12-10T22:06:24.509Z,24.75
2022-12-10T22:08:26.050Z,22.60
2022-12-10T22:10:27.596Z,22.88
2022-12-10T22:12:29.061Z,24.00
2022-12-10T22:14:30.609Z,23.73
2022-12-10T22:16:32.125Z,21.27
2022-12-10T22:18:33.637Z,24.00
2022-12-10T22:20:36.800Z,22.42
2022-12-10T22:22:38.370Z,22.25
2022-12-10T22:24:40.087Z,21.95
2022-12-10T22:26:41.633Z,21.73
2022-12-10T22:28:43.350Z,22.55
2022-12-10T22:30:44.900Z,22.23
2022-12-10T22:32:46.570Z,19.33
2022-12-10T22:34:48.114Z,20.23
2022-12-10T22:36:50.354Z,22.83
2022-12-10T22:38:51.915Z,23.73
2022-12-10T22:40:53.366Z,30.42
2022-12-10T22:43:10.218Z,26.67
2022-12-10T22:45:16.506Z,25.35
2022-12-10T22:47:17.959Z,21.63
2022-12-10T22:49:19.417Z,20.83
2022-12-10T22:51:20.951Z,22.08
2022-12-10T22:53:22.409Z,21.60
2022-12-10T22:55:23.890Z,19.77
2022-12-10T22:57:25.430Z,20.15
2022-12-10T22:59:28.107Z,21.67
2022-12-10T23:01:29.877Z,23.48
2022-12-10T23:03:31.942Z,19.33
2022-12-10T23:05:35.878Z,20.73
2022-12-10T23:07:37.507Z,22.80
2022-12-10T23:09:40.819Z,22.02
2022-12-10T23:12:02.254Z,23.38
2022-12-10T23:14:03.776Z,21.75
2022-12-10T23:16:07.901Z,19.58
2022-12-10T23:18:12.469Z,24.70
2022-12-10T23:20:14.381Z,21.92
2022-12-10T23:22:15.966Z,24.23
2022-12-10T23:24:17.462Z,22.63
2022-12-10T23:26:19.969Z,22.30
2022-12-10T23:28:21.662Z,21.75
2022-12-10T23:30:23.452Z,23.35
2022-12-10T23:32:24.945Z,23.45
2022-12-10T23:34:26.558Z,19.13
2022-12-10T23:36:28.035Z,22.30
2022-12-10T23:38:29.498Z,22.52
2022-12-10T23:40:30.946Z,22.58
2022-12-10T23:42:32.836Z,20.70
2022-12-10T23:44:34.283Z,21.10
2022-12-10T23:46:35.808Z,21.38
2022-12-10T23:48:37.593Z,21.88
2022-12-10T23:50:39.115Z,22.33
2022-12-10T23:52:40.583Z,21.48
2022-12-10T23:54:42.679Z,20.52
2022-12-10T23:56:44.140Z,18.85
2022-12-10T23:58:47.429Z,20.42
